createdAt,value
2023-05-02T00:01:27.939Z,7.88
2023-05-02T00:03:55.631Z,7.65
2023-05-02T00:06:23.226Z,8.35
2023-05-02T00:08:50.770Z,7.93
2023-05-02T00:11:18.204Z,7.85
2023-05-02T00:13:46.962Z,8.05
2023-05-02T00:16:14.362Z,8.30
2023-05-02T00:18:41.750Z,8.55
2023-05-02T00:21:09.498Z,8.43
2023-05-02T00:23:36.853Z,7.85
2023-05-02T00:26:04.265Z,8.27
2023-05-02T00:28:33.353Z,8.68
2023-05-02T00:31:02.191Z,8.23
2023-05-02T00:33:29.559Z,8.13
2023-05-02T00:35:56.929Z,7.97
2023-05-02T00:38:24.299Z,8.20
2023-05-02T00:40:52.881Z,8.10
2023-05-02T00:43:21.175Z,8.20
2023-05-02T00:45:49.216Z,8.60
2023-05-02T00:48:20.491Z,8.60
2023-05-02T00:50:47.893Z,8.55
2023-05-02T00:53:16.116Z,8.82
2023-05-02T00:55:43.909Z,8.73
2023-05-02T00:58:13.241Z,8.43
2023-05-02T01:00:51.581Z,8.52
2023-05-02T01:03:30.251Z,9.60
2023-05-02T01:06:12.734Z,8.50
2023-05-02T01:08:48.828Z,8.52
2023-05-02T01:11:21.378Z,8.93
2023-05-02T01:13:50.212Z,9.70
2023-05-02T01:16:21.262Z,8.23
2023-05-02T01:18:51.270Z,8.73
2023-05-02T01:21:18.750Z,9.20
2023-05-02T01:23:54.057Z,8.50
2023-05-02T01:26:34.654Z,8.70
2023-05-02T01:29:04.820Z,7.47
2023-05-02T01:31:37.736Z,8.30
2023-05-02T01:34:09.971Z,8.10
2023-05-02T01:36:42.719Z,7.93
2023-05-02T01:39:11.953Z,7.80
2023-05-02T01:41:41.736Z,7.63
2023-05-02T01:44:12.284Z,7.88
2023-05-02T01:46:43.011Z,7.90
2023-05-02T01:49:11.772Z,7.88
2023-05-02T01:51:45.079Z,8.65
2023-05-02T01:54:14.690Z,7.95
2023-05-02T01:56:43.527Z,8.20
2023-05-02T01:59:15.066Z,8.40
2023-05-02T02:01:44.836Z,8.68
2023-05-02T02:04:15.675Z,8.20
2023-05-02T02:06:47.586Z,8.60
2023-05-02T02:09:15.471Z,8.45
2023-05-02T02:11:47.291Z,9.02
2023-05-02T02:14:20.941Z,8.40
2023-05-02T02:16:50.851Z,7.97
2023-05-02T02:19:19.261Z,8.73
2023-05-02T02:21:49.331Z,8.05
2023-05-02T02:24:19.703Z,8.57
2023-05-02T02:26:47.368Z,8.85
2023-05-02T02:29:15.004Z,8.63
2023-05-02T02:31:43.818Z,9.27
2023-05-02T02:34:11.303Z,8.80
2023-05-02T02:36:46.861Z,9.32
2023-05-02T02:39:26.264Z,8.90
2023-05-02T02:42:04.595Z,9.30
2023-05-02T02:44:40.876Z,8.93
2023-05-02T02:47:13.054Z,9.43
2023-05-02T02:49:49.814Z,8.25
2023-05-02T02:52:23.487Z,9.13
2023-05-02T02:54:57.661Z,9.25
2023-05-02T02:57:29.554Z,8.30
2023-05-02T03:00:03.845Z,9.40
2023-05-02T03:02:34.001Z,9.20
2023-05-02T03:05:03.392Z,9.52
2023-05-02T03:07:31.453Z,8.75
2023-05-02T03:09:59.091Z,9.35
2023-05-02T03:12:26.548Z,8.98
2023-05-02T03:14:55.934Z,8.93
2023-05-02T03:17:26.173Z,8.70
2023-05-02T03:19:57.463Z,9.02
2023-05-02T03:22:24.997Z,8.50
2023-05-02T03:24:52.410Z,8.60
2023-05-02T03:27:19.775Z,8.02
2023-05-02T03:29:47.762Z,7.60
2023-05-02T03:32:15.208Z,7.22
2023-05-02T03:34:42.647Z,7.28
2023-05-02T03:37:11.328Z,7.78
2023-05-02T03:39:38.755Z,7.47
2023-05-02T03:42:06.481Z,7.63
2023-05-02T03:44:33.877Z,7.38
2023-05-02T03:47:01.320Z,7.20
2023-05-02T03:49:28.861Z,6.80
2023-05-02T03:51:56.325Z,7.25
2023-05-02T03:54:25.121Z,7.07
2023-05-02T03:56:54.499Z,6.85
2023-05-02T03:59:21.901Z,6.97
2023-05-02T04:01:50.084Z,7.13
2023-05-02T04:04:17.598Z,7.32
2023-05-02T04:06:45.526Z,7.32
2023-05-02T04:09:13.040Z,7.10
2023-05-02T04:11:41.981Z,7.50
2023-05-02T04:14:09.374Z,7.18
2023-05-02T04:16:36.802Z,7.50
2023-05-02T04:19:04.245Z,7.10
2023-05-02T04:21:31.865Z,6.90
2023-05-02T04:23:59.254Z,7.13
2023-05-02T04:26:26.976Z,7.18
2023-05-02T04:28:55.962Z,6.93
2023-05-02T04:31:23.466Z,7.60
2023-05-02T04:33:50.846Z,6.95
2023-05-02T04:36:19.041Z,7.05
2023-05-02T04:38:46.518Z,7.10
2023-05-02T04:41:13.954Z,7.15
2023-05-02T04:43:41.469Z,7.20
2023-05-02T04:46:10.214Z,7.20
2023-05-02T04:48:41.866Z,6.25
2023-05-02T04:51:09.581Z,6.50
2023-05-02T04:53:37.206Z,6.57
2023-05-02T04:56:05.083Z,6.70
2023-05-02T04:58:32.538Z,6.15
2023-05-02T05:00:59.908Z,6.97
2023-05-02T05:03:29.873Z,7.10
2023-05-02T05:05:58.029Z,6.30
2023-05-02T05:08:25.424Z,6.55
2023-05-02T05:10:52.941Z,6.13
2023-05-02T05:13:20.378Z,7.22
2023-05-02T05:15:48.747Z,6.18
2023-05-02T05:18:16.369Z,6.85
2023-05-02T05:20:45.121Z,6.45
2023-05-02T05:23:12.532Z,6.90
2023-05-02T05:25:40.365Z,6.10
2023-05-02T05:28:07.779Z,6.45
2023-05-02T05:30:35.171Z,6.45
2023-05-02T05:33:02.628Z,6.43
2023-05-02T05:35:30.073Z,6.38
2023-05-02T05:37:58.795Z,6.70
2023-05-02T05:40:26.236Z,5.72
2023-05-02T05:42:53.586Z,6.13
2023-05-02T05:45:21.237Z,6.07
2023-05-02T05:47:48.664Z,6.03
2023-05-02T05:50:16.325Z,5.60
2023-05-02T05:52:43.723Z,5.82
2023-05-02T05:55:12.595Z,6.22
2023-05-02T05:57:39.995Z,5.90
2023-05-02T06:00:08.799Z,5.88
2023-05-02T06:02:36.434Z,5.78
2023-05-02T06:05:04.243Z,6.15
2023-05-02T06:07:31.805Z,6.13
2023-05-02T06:09:59.276Z,6.07
2023-05-02T06:12:28.190Z,5.78
2023-05-02T06:14:55.556Z,6.15
2023-05-02T06:17:23.212Z,5.90
2023-05-02T06:19:50.579Z,5.47
2023-05-02T06:22:18.032Z,5.53
2023-05-02T06:24:45.535Z,6.03
2023-05-02T06:27:12.953Z,5.28
2023-05-02T06:29:41.697Z,5.15
2023-05-02T06:32:10.050Z,4.65
2023-05-02T06:34:37.504Z,5.10
2023-05-02T06:37:04.912Z,5.05
2023-05-02T06:39:32.347Z,5.30
2023-05-02T06:41:59.946Z,5.25
2023-05-02T06:44:27.364Z,5.25
2023-05-02T06:46:56.398Z,4.95
2023-05-02T06:49:23.900Z,5.38
2023-05-02T06:51:51.309Z,4.90
2023-05-02T06:54:18.744Z,5.32
2023-05-02T06:56:46.136Z,4.38
2023-05-02T06:59:13.627Z,5.05
2023-05-02T07:01:41.049Z,4.88
2023-05-02T07:04:10.066Z,4.97
2023-05-02T07:06:37.519Z,4.75
2023-05-02T07:09:05.037Z,5.38
2023-05-02T07:11:32.381Z,4.72
2023-05-02T07:13:59.766Z,4.40
2023-05-02T07:16:27.237Z,4.60
2023-05-02T07:18:54.735Z,4.13
2023-05-02T07:21:23.637Z,4.28
2023-05-02T07:23:51.157Z,4.97
2023-05-02T07:26:18.874Z,4.65
2023-05-02T07:28:46.375Z,4.68
2023-05-02T07:31:13.752Z,4.47
2023-05-02T07:33:41.147Z,4.50
2023-05-02T07:36:08.900Z,4.82
2023-05-02T07:38:37.644Z,4.53
2023-05-02T07:41:05.088Z,4.60
2023-05-02T07:43:32.585Z,4.32
2023-05-02T07:46:04.468Z,4.95
2023-05-02T07:48:32.242Z,4.82
2023-05-02T07:51:07.128Z,4.55
2023-05-02T07:53:34.785Z,5.07
2023-05-02T07:56:04.408Z,5.10
2023-05-02T07:58:31.790Z,4.70
2023-05-02T08:00:59.553Z,4.45
2023-05-02T08:03:28.227Z,5.38
2023-05-02T08:05:55.750Z,5.03
2023-05-02T08:08:23.197Z,5.22
2023-05-02T08:10:51.275Z,4.88
2023-05-02T08:13:20.129Z,5.55
2023-05-02T08:15:47.508Z,5.72
2023-05-02T08:18:15.055Z,6.20
2023-05-02T08:20:44.021Z,5.45
2023-05-02T08:23:11.534Z,5.38
2023-05-02T08:25:38.910Z,5.68
2023-05-02T08:28:06.497Z,4.80
2023-05-02T08:30:35.304Z,5.32
2023-05-02T08:33:02.687Z,5.75
2023-05-02T08:35:30.654Z,5.70
2023-05-02T08:37:58.217Z,5.28
2023-05-02T08:40:40.562Z,5.05
2023-05-02T08:43:08.816Z,5.45
2023-05-02T08:45:46.312Z,4.97
2023-05-02T08:48:16.756Z,5.13
2023-05-02T08:50:48.042Z,5.55
2023-05-02T08:53:17.711Z,5.78
2023-05-02T08:55:45.209Z,5.60
2023-05-02T08:58:14.690Z,5.07
2023-05-02T09:00:44.927Z,5.20
2023-05-02T09:03:23.806Z,5.30
2023-05-02T09:05:54.790Z,5.20
2023-05-02T09:08:26.068Z,5.07
2023-05-02T09:10:53.641Z,4.75
2023-05-02T09:13:32.052Z,5.28
2023-05-02T09:16:02.246Z,5.03
2023-05-02T09:18:31.503Z,4.50
2023-05-02T09:21:00.780Z,4.75
2023-05-02T09:23:39.296Z,4.65
2023-05-02T09:26:18.431Z,5.13
2023-05-02T09:28:47.131Z,4.93
2023-05-02T09:31:26.995Z,4.88
2023-05-02T09:34:09.837Z,4.85
2023-05-02T09:36:41.585Z,6.07
2023-05-02T09:39:11.097Z,5.28
2023-05-02T09:41:41.570Z,5.82
2023-05-02T09:44:11.723Z,5.63
2023-05-02T09:46:44.714Z,6.57
2023-05-02T09:49:14.549Z,6.40
2023-05-02T09:51:43.901Z,6.70
2023-05-02T09:54:11.580Z,8.00
2023-05-02T09:56:56.486Z,7.63
2023-05-02T09:59:25.111Z,7.38
2023-05-02T10:01:58.379Z,7.78
2023-05-02T10:04:26.999Z,7.47
2023-05-02T10:06:55.450Z,7.57
2023-05-02T10:09:23.438Z,7.43
2023-05-02T10:11:53.817Z,9.15
2023-05-02T10:14:22.465Z,8.63
2023-05-02T10:16:56.321Z,9.38
2023-05-02T10:19:30.674Z,8.25
2023-05-02T10:21:58.952Z,9.45
2023-05-02T10:24:27.609Z,9.00
2023-05-02T10:26:55.696Z,9.57
2023-05-02T10:29:23.464Z,8.48
2023-05-02T10:31:51.525Z,7.57
2023-05-02T10:34:19.741Z,8.55
2023-05-02T10:36:48.817Z,8.65
2023-05-02T10:39:16.400Z,8.05
2023-05-02T10:41:44.924Z,9.07
2023-05-02T10:44:12.387Z,9.57
2023-05-02T10:46:41.551Z,8.98
2023-05-02T10:49:10.849Z,8.65
2023-05-02T10:51:40.281Z,9.55
2023-05-02T10:54:22.865Z,9.05
2023-05-02T10:57:05.518Z,9.50
2023-05-02T10:59:34.398Z,9.52
2023-05-02T11:02:03.116Z,9.57
2023-05-02T11:05:00.632Z,8.95
2023-05-02T11:07:29.662Z,9.27
2023-05-02T11:10:29.105Z,10.02
2023-05-02T11:13:00.841Z,10.35
2023-05-02T11:15:59.768Z,9.68
2023-05-02T11:18:27.301Z,9.43
2023-05-02T11:21:28.628Z,11.05
2023-05-02T11:24:29.510Z,10.05
2023-05-02T11:27:43.403Z,9.55
2023-05-02T11:30:12.813Z,10.55
2023-05-02T11:33:18.005Z,10.32
2023-05-02T11:35:46.774Z,8.88
2023-05-02T11:38:16.503Z,8.80
2023-05-02T11:40:58.104Z,7.78
2023-05-02T11:43:31.226Z,8.75
2023-05-02T11:46:00.530Z,8.65
2023-05-02T11:48:28.772Z,9.02
2023-05-02T11:50:58.172Z,8.93
2023-05-02T11:53:28.832Z,9.00
2023-05-02T11:55:58.089Z,9.23
2023-05-02T11:58:29.677Z,9.48
2023-05-02T12:00:57.957Z,8.85
2023-05-02T12:03:29.215Z,8.90
2023-05-02T12:05:57.360Z,8.95
2023-05-02T12:08:27.355Z,9.43
2023-05-02T12:10:55.960Z,8.88
2023-05-02T12:13:24.735Z,9.90
2023-05-02T12:15:55.040Z,9.77
2023-05-02T12:18:24.521Z,9.88
2023-05-02T12:20:52.859Z,9.02
2023-05-02T12:23:21.872Z,8.65
2023-05-02T12:25:49.663Z,8.32
2023-05-02T12:28:19.445Z,9.35
2023-05-02T12:30:49.374Z,8.77
2023-05-02T12:33:18.688Z,7.57
2023-05-02T12:35:47.765Z,7.82
2023-05-02T12:38:16.896Z,8.40
2023-05-02T12:40:49.570Z,9.63
2023-05-02T12:43:17.084Z,8.38
2023-05-02T12:45:44.548Z,8.90
2023-05-02T12:48:24.889Z,8.60
2023-05-02T12:50:53.312Z,9.13
2023-05-02T12:53:39.358Z,9.45
2023-05-02T12:56:07.870Z,8.65
2023-05-02T12:58:43.302Z,8.82
2023-05-02T13:01:11.063Z,7.93
2023-05-02T13:03:41.884Z,8.45
2023-05-02T13:06:09.868Z,8.40
2023-05-02T13:08:39.840Z,8.30
2023-05-02T13:11:11.869Z,8.38
2023-05-02T13:13:41.530Z,7.97
2023-05-02T13:16:14.329Z,8.93
2023-05-02T13:18:45.588Z,9.88
2023-05-02T13:21:17.477Z,8.73
2023-05-02T13:23:45.900Z,8.98
2023-05-02T13:26:15.410Z,7.88
2023-05-02T13:28:42.897Z,9.45
2023-05-02T13:31:10.446Z,10.10
2023-05-02T13:33:37.867Z,9.27
2023-05-02T13:36:07.065Z,9.00
2023-05-02T13:38:34.913Z,8.13
2023-05-02T13:41:02.497Z,8.73
2023-05-02T13:43:29.907Z,7.75
2023-05-02T13:45:57.551Z,8.43
2023-05-02T13:48:25.341Z,7.38
2023-05-02T13:50:52.688Z,8.95
2023-05-02T13:53:21.390Z,8.52
2023-05-02T13:55:49.167Z,8.18
2023-05-02T13:58:16.564Z,10.10
2023-05-02T14:00:43.974Z,10.07
2023-05-02T14:03:12.080Z,10.00
2023-05-02T14:05:43.468Z,9.68
2023-05-02T14:08:11.240Z,10.02
2023-05-02T14:10:40.741Z,10.27
2023-05-02T14:13:08.154Z,10.98
2023-05-02T14:15:35.557Z,10.50
2023-05-02T14:18:03.027Z,10.75
2023-05-02T14:20:30.520Z,10.93
2023-05-02T14:22:58.000Z,10.57
2023-05-02T14:25:25.563Z,12.20
2023-05-02T14:27:54.308Z,11.63
2023-05-02T14:30:21.862Z,11.40
2023-05-02T14:32:49.317Z,11.15
2023-05-02T14:35:16.691Z,12.15
2023-05-02T14:37:45.498Z,11.15
2023-05-02T14:40:13.993Z,11.25
2023-05-02T14:42:41.614Z,10.77
2023-05-02T14:45:11.405Z,10.20
2023-05-02T14:47:38.976Z,9.48
2023-05-02T14:50:07.648Z,9.85
2023-05-02T14:52:35.055Z,10.25
2023-05-02T14:55:03.038Z,10.18
2023-05-02T14:57:30.807Z,9.80
2023-05-02T14:59:58.306Z,8.32
2023-05-02T15:02:27.336Z,7.90
2023-05-02T15:04:54.868Z,8.07
2023-05-02T15:07:22.595Z,8.07
2023-05-02T15:09:50.267Z,7.85
2023-05-02T15:12:17.717Z,7.32
2023-05-02T15:14:45.098Z,6.85
2023-05-02T15:17:13.102Z,7.13
2023-05-02T15:19:41.832Z,6.20
2023-05-02T15:22:09.247Z,6.25
2023-05-02T15:24:36.616Z,5.85
2023-05-02T15:27:04.241Z,5.72
2023-05-02T15:29:31.774Z,5.95
2023-05-02T15:31:59.272Z,6.40
2023-05-02T15:34:26.841Z,6.63
2023-05-02T15:36:57.867Z,5.80
2023-05-02T15:39:27.857Z,5.53
2023-05-02T15:41:55.331Z,4.97
2023-05-02T15:44:22.828Z,4.50
2023-05-02T15:46:50.326Z,4.60
2023-05-02T15:49:18.696Z,4.78
2023-05-02T15:51:46.093Z,3.38
2023-05-02T15:54:14.873Z,3.20
2023-05-02T15:56:42.332Z,3.10
2023-05-02T15:59:10.017Z,2.95
2023-05-02T16:01:37.521Z,3.20
2023-05-02T16:04:06.839Z,2.90
2023-05-02T16:06:34.566Z,3.13
2023-05-02T16:09:03.628Z,3.58
2023-05-02T16:11:32.950Z,3.95
2023-05-02T16:14:00.817Z,3.58
2023-05-02T16:16:28.953Z,4.10
2023-05-02T16:18:56.373Z,4.55
2023-05-02T16:21:23.772Z,4.32
2023-05-02T16:23:51.351Z,4.75
2023-05-02T16:26:20.204Z,4.30
2023-05-02T16:28:48.904Z,4.90
2023-05-02T16:31:16.359Z,4.18
2023-05-02T16:33:43.767Z,3.50
2023-05-02T16:36:11.259Z,4.53
2023-05-02T16:38:38.639Z,4.45
2023-05-02T16:41:07.102Z,4.20
2023-05-02T16:43:34.831Z,3.83
2023-05-02T16:46:05.184Z,4.50
2023-05-02T16:48:33.170Z,4.60
2023-05-02T16:51:03.262Z,4.78
2023-05-02T16:53:31.922Z,4.43
2023-05-02T16:55:59.557Z,3.88
2023-05-02T16:58:29.545Z,3.95
2023-05-02T17:00:57.348Z,3.85
2023-05-02T17:03:26.733Z,3.53
2023-05-02T17:05:54.143Z,3.47
2023-05-02T17:08:21.593Z,4.18
2023-05-02T17:10:50.084Z,4.18
2023-05-02T17:13:17.571Z,3.42
2023-05-02T17:15:45.084Z,4.13
2023-05-02T17:18:12.629Z,4.00
2023-05-02T17:20:41.588Z,4.55
2023-05-02T17:23:09.756Z,4.20
2023-05-02T17:25:38.166Z,4.20
2023-05-02T17:28:05.612Z,4.57
2023-05-02T17:30:33.958Z,4.28
2023-05-02T17:33:01.394Z,4.22
2023-05-02T17:35:30.662Z,4.35
2023-05-02T17:37:59.380Z,3.58
2023-05-02T17:40:27.277Z,3.80
2023-05-02T17:42:55.329Z,4.15
2023-05-02T17:45:22.796Z,3.45
2023-05-02T17:47:50.272Z,3.35
2023-05-02T17:50:17.862Z,2.92
2023-05-02T17:52:45.615Z,3.30
2023-05-02T17:55:14.369Z,3.13
2023-05-02T17:57:43.656Z,3.05
2023-05-02T18:00:12.130Z,3.13
2023-05-02T18:02:39.906Z,2.83
2023-05-02T18:05:08.003Z,3.10
2023-05-02T18:07:35.433Z,2.53
2023-05-02T18:10:04.995Z,2.30
2023-05-02T18:12:35.729Z,2.60
2023-05-02T18:15:05.056Z,2.15
2023-05-02T18:17:32.946Z,2.78
2023-05-02T18:20:00.719Z,2.85
2023-05-02T18:22:28.386Z,2.70
2023-05-02T18:24:56.522Z,3.05
2023-05-02T18:27:23.980Z,2.58
2023-05-02T18:29:54.373Z,3.10
2023-05-02T18:32:21.882Z,3.17
2023-05-02T18:34:49.310Z,2.47
2023-05-02T18:37:16.692Z,2.83
2023-05-02T18:39:44.079Z,3.17
2023-05-02T18:42:13.024Z,3.22
2023-05-02T18:44:40.402Z,3.08
2023-05-02T18:47:09.808Z,2.83
2023-05-02T18:49:37.165Z,3.92
2023-05-02T18:52:08.640Z,5.35
2023-05-02T18:54:36.188Z,3.45
2023-05-02T18:57:03.643Z,4.20
2023-05-02T18:59:31.160Z,6.85
2023-05-02T19:01:59.638Z,4.05
2023-05-02T19:04:31.387Z,3.30
2023-05-02T19:07:00.622Z,3.15
2023-05-02T19:09:29.629Z,4.07
2023-05-02T19:11:57.058Z,2.88
2023-05-02T19:14:24.516Z,3.92
2023-05-02T19:16:51.914Z,3.33
2023-05-02T19:19:19.448Z,3.25
2023-05-02T19:21:49.131Z,2.80
2023-05-02T19:27:09.961Z,3.95
2023-05-02T19:29:37.364Z,3.45
2023-05-02T19:32:08.636Z,3.92
2023-05-02T19:34:36.838Z,3.92
2023-05-02T19:37:05.641Z,4.57
2023-05-02T19:39:33.032Z,3.08
2023-05-02T19:42:00.446Z,3.92
2023-05-02T19:44:27.892Z,3.25
2023-05-02T19:46:55.317Z,3.22
2023-05-02T19:49:22.763Z,2.95
2023-05-02T19:51:50.397Z,2.95
2023-05-02T19:54:22.671Z,2.75
2023-05-02T19:56:50.292Z,2.90
2023-05-02T19:59:17.768Z,2.72
2023-05-02T20:01:46.716Z,2.95
2023-05-02T20:04:14.357Z,2.90
2023-05-02T20:06:42.055Z,4.75
2023-05-02T20:09:09.494Z,2.95
2023-05-02T20:11:38.211Z,2.90
2023-05-02T20:14:05.939Z,2.80
2023-05-02T20:16:33.431Z,2.85
2023-05-02T20:19:00.826Z,3.90
2023-05-02T20:21:28.181Z,4.30
2023-05-02T20:23:55.573Z,3.15
2023-05-02T20:26:23.357Z,2.90
2023-05-02T20:28:52.073Z,2.85
2023-05-02T20:31:19.511Z,3.80
2023-05-02T20:33:47.333Z,2.97
2023-05-02T20:36:15.654Z,4.68
2023-05-02T20:38:44.594Z,3.85
2023-05-02T20:41:13.824Z,3.70
2023-05-02T20:43:47.606Z,3.80
2023-05-02T20:46:17.112Z,3.65
2023-05-02T20:48:44.530Z,3.53
2023-05-02T20:51:12.004Z,4.53
2023-05-02T20:53:39.850Z,5.10
2023-05-02T20:56:07.838Z,4.78
2023-05-02T20:58:35.376Z,5.50
2023-05-02T21:01:02.830Z,5.15
2023-05-02T21:03:32.038Z,3.72
2023-05-02T21:06:00.145Z,3.88
2023-05-02T21:08:27.673Z,5.20
2023-05-02T21:10:55.060Z,4.10
2023-05-02T21:13:22.697Z,4.13
2023-05-02T21:15:50.164Z,4.82
2023-05-02T21:18:17.727Z,4.00
2023-05-02T21:20:49.723Z,4.18
2023-05-02T21:23:17.134Z,6.32
2023-05-02T21:25:44.516Z,22.27
2023-05-02T21:28:11.946Z,12.80
2023-05-02T21:30:39.301Z,7.97
2023-05-02T21:33:06.794Z,5.00
2023-05-02T21:35:34.381Z,6.07
2023-05-02T21:38:03.076Z,5.30
2023-05-02T21:40:31.780Z,5.60
2023-05-02T21:42:59.257Z,6.47
2023-05-02T21:45:26.655Z,5.53
2023-05-02T21:47:54.274Z,5.10
2023-05-02T21:50:22.536Z,4.43
2023-05-02T21:52:50.614Z,4.22
2023-05-02T21:55:19.375Z,3.72
2023-05-02T21:57:46.812Z,4.25
2023-05-02T22:00:14.899Z,4.28
2023-05-02T22:02:42.444Z,4.35
2023-05-02T22:05:11.409Z,4.35
2023-05-02T22:07:38.795Z,3.55
2023-05-02T22:10:08.022Z,3.90
2023-05-02T22:12:36.719Z,3.83
2023-05-02T22:15:07.248Z,4.43
2023-05-02T22:17:34.806Z,4.00
2023-05-02T22:20:04.129Z,4.68
2023-05-02T22:22:31.745Z,4.05
2023-05-02T22:24:59.116Z,4.05
2023-05-02T22:27:26.533Z,4.68
2023-05-02T22:29:55.248Z,3.90
2023-05-02T22:32:23.557Z,4.13
2023-05-02T22:34:50.970Z,4.10
2023-05-02T22:37:18.442Z,3.88
2023-05-02T22:39:45.811Z,3.92
2023-05-02T22:42:13.218Z,4.07
2023-05-02T22:44:53.227Z,4.45
2023-05-02T22:47:22.783Z,3.97
2023-05-02T22:49:50.894Z,3.97
2023-05-02T22:52:20.445Z,4.03
2023-05-02T22:54:47.973Z,4.50
2023-05-02T22:57:15.385Z,4.15
2023-05-02T22:59:42.802Z,4.00
2023-05-02T23:02:11.635Z,4.25
2023-05-02T23:04:40.401Z,4.28
2023-05-02T23:07:07.797Z,4.20
2023-05-02T23:09:35.462Z,3.90
2023-05-02T23:12:03.800Z,3.65
2023-05-02T23:14:31.203Z,3.72
2023-05-02T23:16:58.592Z,4.43
2023-05-02T23:19:26.356Z,4.78
2023-05-02T23:21:55.063Z,4.53
2023-05-02T23:24:22.489Z,4.00
2023-05-02T23:26:49.837Z,4.30
2023-05-02T23:29:17.257Z,4.28
2023-05-02T23:31:44.980Z,4.15
2023-05-02T23:34:12.950Z,4.28
2023-05-02T23:36:40.820Z,4.20
2023-05-02T23:39:09.834Z,4.10
2023-05-02T23:41:37.220Z,4.43
2023-05-02T23:44:05.329Z,4.85
2023-05-02T23:46:32.751Z,4.43
2023-05-02T23:49:00.171Z,4.93
2023-05-02T23:51:28.644Z,3.83
2023-05-02T23:53:56.049Z,3.95
2023-05-02T23:56:24.770Z,4.22
2023-05-02T23:58:52.140Z,4.68
